Pagrindinis puslapis
METAR-TAF:

METAR-TAF

Oro uostai :

Santos Dumont oro uostas

Rio de Žaneiras, Rio de Janeiro, Brazilija

platuma: 22-54S, ilguma: 043-10W, Aukštis: 3 m

Dabartinis oras

Ataskaita buvo paskelbta 59 minutes, ne 05:00 UTC
Vėjas 5 kt iš Šiaurės Vakarų
Temperatūra 21°C
Drėgmė 100%
Slėgis 1016 hPa
Matomumas: 7000 m
Mažai debesys ne aukštis 1000 ft
Su prošvaistėmis ne aukštis 1500 ft
Apsiniaukę ne aukštis 2500 ft
lietus

METAR: SBRJ 230500Z 31005KT 7000 -RA FEW010 BKN015 OVC025 21/21 Q1016

Laikas: 02:59 (05:59 UTC)

Prognozė

Ataskaita buvo paskelbta 8 valandos ir 59 minutes, ne 21:00 UTC
Prognozė galioja nuo 23 metu 00 UTC su 23 metu 12 UTC
Vėjas 5 kt iš Pietų
Matomumas: 8000 m
Išsisklaidę debesys ne aukštis 1000 ft
Su prošvaistėmis ne aukštis 3000 ft
Tapsmas
nuo 23 metu 02 UTC su 23 metu 04 UTC
Vėjas 5 kt iš Šiaurės/Šiaurės Vakarų
Išsisklaidę debesys ne aukštis 1500 ft

TAF: SBRJ 222100Z 2300/2312 18005KT 8000 SCT010 BKN030 TN23/2307Z TX25/2312Z BECMG 2302/2304 34005KT SCT015 RMK PHD

Orai ataskaitas ir orų prognozės (METAR, TAF).

turimą stotys yra geltonos ir raudonos taškus žemėlapyje.

Perkelti pele per norėdami pamatyti stoties vardą.

Tada spustelėkite, norėdami matyti oro stebėjimo ir prognozės.

Norėdami pakeisti žemėlapį: spustelėkite ant žalios mygtukų su juodo kryžiaus žemyn,; žalią mygtuką su brūkšneliu, jei norite nutolinti; arba žalių rodyklių gretimoms žemėlapius.


METAR-TAF: